sensor_id;sensor_type;location;lat;lon;timestamp;P1;durP1;ratioP1;P2;durP2;ratioP2
36001;SDS011;22070;50.922;5.430;2023-04-24T00:00:05;8.00;;;5.55;;
36001;SDS011;22070;50.922;5.430;2023-04-24T00:02:32;12.07;;;6.22;;
36001;SDS011;22070;50.922;5.430;2023-04-24T00:04:58;18.85;;;7.25;;
36001;SDS011;22070;50.922;5.430;2023-04-24T00:07:28;13.98;;;7.43;;
36001;SDS011;22070;50.922;5.430;2023-04-24T00:09:54;13.68;;;7.25;;
36001;SDS011;22070;50.922;5.430;2023-04-24T00:12:20;14.45;;;8.32;;
36001;SDS011;22070;50.922;5.430;2023-04-24T00:14:45;15.40;;;7.55;;
36001;SDS011;22070;50.922;5.430;2023-04-24T00:17:11;15.20;;;7.65;;
36001;SDS011;22070;50.922;5.430;2023-04-24T00:19:37;12.48;;;6.95;;
36001;SDS011;22070;50.922;5.430;2023-04-24T00:22:03;15.43;;;7.82;;
36001;SDS011;22070;50.922;5.430;2023-04-24T00:24:29;16.55;;;8.02;;
36001;SDS011;22070;50.922;5.430;2023-04-24T00:26:54;19.47;;;7.83;;
36001;SDS011;22070;50.922;5.430;2023-04-24T00:29:20;14.10;;;8.00;;
36001;SDS011;22070;50.922;5.430;2023-04-24T00:31:46;12.60;;;8.32;;
36001;SDS011;22070;50.922;5.430;2023-04-24T00:34:11;15.65;;;8.07;;
36001;SDS011;22070;50.922;5.430;2023-04-24T00:36:37;17.75;;;8.02;;
36001;SDS011;22070;50.922;5.430;2023-04-24T00:39:03;17.55;;;8.05;;
36001;SDS011;22070;50.922;5.430;2023-04-24T00:41:29;15.07;;;8.25;;
36001;SDS011;22070;50.922;5.430;2023-04-24T00:43:55;20.20;;;8.68;;
36001;SDS011;22070;50.922;5.430;2023-04-24T00:46:21;19.48;;;9.52;;
36001;SDS011;22070;50.922;5.430;2023-04-24T00:48:46;15.48;;;9.55;;
36001;SDS011;22070;50.922;5.430;2023-04-24T00:51:12;15.20;;;8.57;;
36001;SDS011;22070;50.922;5.430;2023-04-24T00:53:38;18.38;;;9.45;;
36001;SDS011;22070;50.922;5.430;2023-04-24T00:56:04;18.27;;;10.05;;
36001;SDS011;22070;50.922;5.430;2023-04-24T00:58:30;19.77;;;9.60;;
36001;SDS011;22070;50.922;5.430;2023-04-24T01:00:56;16.55;;;10.00;;
36001;SDS011;22070;50.922;5.430;2023-04-24T01:03:24;16.20;;;9.85;;
36001;SDS011;22070;50.922;5.430;2023-04-24T01:05:54;20.00;;;9.80;;
36001;SDS011;22070;50.922;5.430;2023-04-24T01:10:48;21.55;;;9.80;;
36001;SDS011;22070;50.922;5.430;2023-04-24T01:13:14;21.73;;;10.57;;
36001;SDS011;22070;50.922;5.430;2023-04-24T01:15:40;29.35;;;10.65;;
36001;SDS011;22070;50.922;5.430;2023-04-24T01:18:06;17.90;;;11.00;;
36001;SDS011;22070;50.922;5.430;2023-04-24T01:20:31;16.15;;;7.88;;
36001;SDS011;22070;50.922;5.430;2023-04-24T01:22:58;19.60;;;9.73;;
36001;SDS011;22070;50.922;5.430;2023-04-24T01:25:25;21.52;;;10.05;;
36001;SDS011;22070;50.922;5.430;2023-04-24T01:30:17;22.60;;;9.90;;
36001;SDS011;22070;50.922;5.430;2023-04-24T01:32:43;23.83;;;9.85;;
36001;SDS011;22070;50.922;5.430;2023-04-24T01:35:10;24.85;;;9.73;;
36001;SDS011;22070;50.922;5.430;2023-04-24T01:37:36;16.00;;;9.07;;
36001;SDS011;22070;50.922;5.430;2023-04-24T01:40:05;18.58;;;9.32;;
36001;SDS011;22070;50.922;5.430;2023-04-24T01:42:32;20.00;;;9.60;;
36001;SDS011;22070;50.922;5.430;2023-04-24T01:44:59;18.52;;;10.35;;
36001;SDS011;22070;50.922;5.430;2023-04-24T01:47:25;16.42;;;9.68;;
36001;SDS011;22070;50.922;5.430;2023-04-24T01:49:51;19.60;;;9.57;;
36001;SDS011;22070;50.922;5.430;2023-04-24T01:52:17;16.90;;;9.38;;
36001;SDS011;22070;50.922;5.430;2023-04-24T01:54:43;25.58;;;9.68;;
36001;SDS011;22070;50.922;5.430;2023-04-24T01:57:09;15.02;;;7.82;;
36001;SDS011;22070;50.922;5.430;2023-04-24T01:59:35;19.30;;;10.63;;
36001;SDS011;22070;50.922;5.430;2023-04-24T02:02:01;17.48;;;10.10;;
36001;SDS011;22070;50.922;5.430;2023-04-24T02:04:28;19.30;;;9.88;;
36001;SDS011;22070;50.922;5.430;2023-04-24T02:06:54;20.70;;;9.60;;
36001;SDS011;22070;50.922;5.430;2023-04-24T02:09:19;15.33;;;8.43;;
36001;SDS011;22070;50.922;5.430;2023-04-24T02:11:45;26.17;;;10.10;;
36001;SDS011;22070;50.922;5.430;2023-04-24T02:14:11;15.35;;;9.38;;
36001;SDS011;22070;50.922;5.430;2023-04-24T02:16:37;19.23;;;10.23;;
36001;SDS011;22070;50.922;5.430;2023-04-24T02:19:03;16.40;;;10.55;;
36001;SDS011;22070;50.922;5.430;2023-04-24T02:21:29;21.80;;;10.35;;
36001;SDS011;22070;50.922;5.430;2023-04-24T02:26:21;17.38;;;9.88;;
36001;SDS011;22070;50.922;5.430;2023-04-24T02:28:47;27.00;;;11.20;;
36001;SDS011;22070;50.922;5.430;2023-04-24T02:31:13;17.85;;;9.88;;
36001;SDS011;22070;50.922;5.430;2023-04-24T02:33:39;17.37;;;10.07;;
36001;SDS011;22070;50.922;5.430;2023-04-24T02:36:05;24.40;;;10.50;;
36001;SDS011;22070;50.922;5.430;2023-04-24T02:38:31;17.65;;;9.90;;
36001;SDS011;22070;50.922;5.430;2023-04-24T02:40:56;16.38;;;9.98;;
36001;SDS011;22070;50.922;5.430;2023-04-24T02:43:22;13.73;;;9.57;;
36001;SDS011;22070;50.922;5.430;2023-04-24T02:45:48;18.70;;;9.90;;
36001;SDS011;22070;50.922;5.430;2023-04-24T02:48:14;19.63;;;9.52;;
36001;SDS011;22070;50.922;5.430;2023-04-24T02:50:39;17.95;;;9.63;;
36001;SDS011;22070;50.922;5.430;2023-04-24T02:53:05;16.67;;;10.00;;
36001;SDS011;22070;50.922;5.430;2023-04-24T02:55:31;17.95;;;9.50;;
36001;SDS011;22070;50.922;5.430;2023-04-24T02:57:57;18.25;;;9.73;;
36001;SDS011;22070;50.922;5.430;2023-04-24T03:00:22;17.98;;;9.20;;
36001;SDS011;22070;50.922;5.430;2023-04-24T03:02:48;17.48;;;9.45;;
36001;SDS011;22070;50.922;5.430;2023-04-24T03:05:14;12.35;;;8.68;;
36001;SDS011;22070;50.922;5.430;2023-04-24T03:07:40;12.93;;;9.07;;
36001;SDS011;22070;50.922;5.430;2023-04-24T03:10:06;17.65;;;9.25;;
36001;SDS011;22070;50.922;5.430;2023-04-24T03:12:32;20.17;;;9.70;;
36001;SDS011;22070;50.922;5.430;2023-04-24T03:14:58;15.82;;;9.90;;
36001;SDS011;22070;50.922;5.430;2023-04-24T03:19:50;16.03;;;9.00;;
36001;SDS011;22070;50.922;5.430;2023-04-24T03:22:16;19.43;;;10.57;;
36001;SDS011;22070;50.922;5.430;2023-04-24T03:24:42;16.38;;;9.98;;
36001;SDS011;22070;50.922;5.430;2023-04-24T03:27:07;15.82;;;9.75;;
36001;SDS011;22070;50.922;5.430;2023-04-24T03:29:33;18.05;;;9.88;;
36001;SDS011;22070;50.922;5.430;2023-04-24T03:31:59;16.00;;;9.23;;
36001;SDS011;22070;50.922;5.430;2023-04-24T03:34:24;15.27;;;9.00;;
36001;SDS011;22070;50.922;5.430;2023-04-24T03:36:50;16.65;;;9.88;;
36001;SDS011;22070;50.922;5.430;2023-04-24T03:39:16;22.20;;;10.07;;
36001;SDS011;22070;50.922;5.430;2023-04-24T03:41:41;17.27;;;9.18;;
36001;SDS011;22070;50.922;5.430;2023-04-24T03:44:07;11.55;;;6.70;;
36001;SDS011;22070;50.922;5.430;2023-04-24T03:46:32;17.00;;;10.05;;
36001;SDS011;22070;50.922;5.430;2023-04-24T03:48:58;15.50;;;8.65;;
36001;SDS011;22070;50.922;5.430;2023-04-24T03:51:24;18.55;;;9.48;;
36001;SDS011;22070;50.922;5.430;2023-04-24T03:53:50;17.93;;;8.57;;
36001;SDS011;22070;50.922;5.430;2023-04-24T03:56:16;14.30;;;8.52;;
36001;SDS011;22070;50.922;5.430;2023-04-24T03:58:42;16.00;;;8.63;;
36001;SDS011;22070;50.922;5.430;2023-04-24T04:01:07;20.23;;;9.40;;
36001;SDS011;22070;50.922;5.430;2023-04-24T04:03:33;15.98;;;8.60;;
36001;SDS011;22070;50.922;5.430;2023-04-24T04:05:59;15.20;;;9.57;;
36001;SDS011;22070;50.922;5.430;2023-04-24T04:08:25;11.07;;;7.60;;
36001;SDS011;22070;50.922;5.430;2023-04-24T04:10:50;15.03;;;8.77;;
36001;SDS011;22070;50.922;5.430;2023-04-24T04:13:16;15.95;;;9.35;;
36001;SDS011;22070;50.922;5.430;2023-04-24T04:15:41;15.23;;;9.03;;
36001;SDS011;22070;50.922;5.430;2023-04-24T04:18:07;15.20;;;8.55;;
36001;SDS011;22070;50.922;5.430;2023-04-24T04:20:33;14.98;;;8.70;;
36001;SDS011;22070;50.922;5.430;2023-04-24T04:22:59;19.88;;;9.13;;
36001;SDS011;22070;50.922;5.430;2023-04-24T04:25:24;15.73;;;8.30;;
36001;SDS011;22070;50.922;5.430;2023-04-24T04:27:50;13.52;;;8.15;;
36001;SDS011;22070;50.922;5.430;2023-04-24T04:30:17;13.48;;;8.35;;
36001;SDS011;22070;50.922;5.430;2023-04-24T04:32:43;13.47;;;8.47;;
36001;SDS011;22070;50.922;5.430;2023-04-24T04:35:09;14.95;;;8.52;;
36001;SDS011;22070;50.922;5.430;2023-04-24T04:37:35;16.77;;;8.40;;
36001;SDS011;22070;50.922;5.430;2023-04-24T04:40:01;15.75;;;8.50;;
36001;SDS011;22070;50.922;5.430;2023-04-24T04:42:31;12.45;;;6.93;;
36001;SDS011;22070;50.922;5.430;2023-04-24T04:44:59;13.10;;;7.93;;
36001;SDS011;22070;50.922;5.430;2023-04-24T04:47:25;11.85;;;8.30;;
36001;SDS011;22070;50.922;5.430;2023-04-24T04:49:51;15.02;;;8.48;;
36001;SDS011;22070;50.922;5.430;2023-04-24T04:52:17;12.52;;;7.65;;
36001;SDS011;22070;50.922;5.430;2023-04-24T04:54:43;12.52;;;8.45;;
36001;SDS011;22070;50.922;5.430;2023-04-24T04:57:09;12.75;;;7.78;;
36001;SDS011;22070;50.922;5.430;2023-04-24T04:59:35;15.50;;;7.68;;
36001;SDS011;22070;50.922;5.430;2023-04-24T05:02:02;11.15;;;8.10;;
36001;SDS011;22070;50.922;5.430;2023-04-24T05:04:27;12.40;;;8.07;;
36001;SDS011;22070;50.922;5.430;2023-04-24T05:06:53;11.83;;;7.90;;
36001;SDS011;22070;50.922;5.430;2023-04-24T05:09:19;7.30;;;5.28;;
36001;SDS011;22070;50.922;5.430;2023-04-24T05:11:44;11.25;;;7.25;;
36001;SDS011;22070;50.922;5.430;2023-04-24T05:14:10;12.20;;;7.10;;
36001;SDS011;22070;50.922;5.430;2023-04-24T05:16:37;10.60;;;6.38;;
36001;SDS011;22070;50.922;5.430;2023-04-24T05:19:04;13.45;;;6.90;;
36001;SDS011;22070;50.922;5.430;2023-04-24T05:21:30;10.40;;;6.13;;
36001;SDS011;22070;50.922;5.430;2023-04-24T05:23:56;11.15;;;6.88;;
36001;SDS011;22070;50.922;5.430;2023-04-24T05:26:21;9.95;;;5.90;;
36001;SDS011;22070;50.922;5.430;2023-04-24T05:28:48;10.20;;;6.60;;
36001;SDS011;22070;50.922;5.430;2023-04-24T05:31:13;10.23;;;6.13;;
36001;SDS011;22070;50.922;5.430;2023-04-24T05:33:39;9.13;;;6.63;;
36001;SDS011;22070;50.922;5.430;2023-04-24T05:36:05;11.23;;;6.75;;
36001;SDS011;22070;50.922;5.430;2023-04-24T05:38:31;11.65;;;6.80;;
36001;SDS011;22070;50.922;5.430;2023-04-24T05:40:57;11.73;;;6.30;;
36001;SDS011;22070;50.922;5.430;2023-04-24T05:43:22;10.85;;;5.93;;
36001;SDS011;22070;50.922;5.430;2023-04-24T05:45:48;10.77;;;6.60;;
36001;SDS011;22070;50.922;5.430;2023-04-24T05:48:14;10.20;;;6.20;;
36001;SDS011;22070;50.922;5.430;2023-04-24T05:50:40;8.73;;;6.05;;
36001;SDS011;22070;50.922;5.430;2023-04-24T05:53:06;10.47;;;6.77;;
36001;SDS011;22070;50.922;5.430;2023-04-24T05:55:32;9.98;;;5.75;;
36001;SDS011;22070;50.922;5.430;2023-04-24T05:57:58;7.88;;;5.10;;
36001;SDS011;22070;50.922;5.430;2023-04-24T06:00:24;6.30;;;4.70;;
36001;SDS011;22070;50.922;5.430;2023-04-24T06:02:50;5.53;;;4.40;;
36001;SDS011;22070;50.922;5.430;2023-04-24T06:05:17;5.80;;;3.60;;
36001;SDS011;22070;50.922;5.430;2023-04-24T06:07:43;5.22;;;4.57;;
36001;SDS011;22070;50.922;5.430;2023-04-24T06:10:09;8.43;;;5.18;;
36001;SDS011;22070;50.922;5.430;2023-04-24T06:12:35;6.07;;;4.55;;
36001;SDS011;22070;50.922;5.430;2023-04-24T06:15:01;11.40;;;5.10;;
36001;SDS011;22070;50.922;5.430;2023-04-24T06:17:27;8.83;;;5.23;;
36001;SDS011;22070;50.922;5.430;2023-04-24T06:19:53;8.25;;;4.93;;
36001;SDS011;22070;50.922;5.430;2023-04-24T06:22:18;8.15;;;4.82;;
36001;SDS011;22070;50.922;5.430;2023-04-24T06:24:44;10.55;;;5.90;;
36001;SDS011;22070;50.922;5.430;2023-04-24T06:27:10;14.80;;;5.78;;
36001;SDS011;22070;50.922;5.430;2023-04-24T06:29:36;11.57;;;5.93;;
36001;SDS011;22070;50.922;5.430;2023-04-24T06:32:01;10.52;;;5.90;;
36001;SDS011;22070;50.922;5.430;2023-04-24T06:34:27;9.47;;;5.60;;
36001;SDS011;22070;50.922;5.430;2023-04-24T06:36:53;8.93;;;5.80;;
36001;SDS011;22070;50.922;5.430;2023-04-24T06:39:20;10.70;;;5.65;;
36001;SDS011;22070;50.922;5.430;2023-04-24T06:41:45;12.40;;;6.03;;
36001;SDS011;22070;50.922;5.430;2023-04-24T06:44:11;9.52;;;5.00;;
36001;SDS011;22070;50.922;5.430;2023-04-24T06:46:36;6.65;;;5.13;;
36001;SDS011;22070;50.922;5.430;2023-04-24T06:49:02;10.02;;;5.68;;
36001;SDS011;22070;50.922;5.430;2023-04-24T06:51:28;9.30;;;5.63;;
36001;SDS011;22070;50.922;5.430;2023-04-24T06:53:53;11.52;;;5.75;;
36001;SDS011;22070;50.922;5.430;2023-04-24T06:56:21;10.20;;;6.72;;
36001;SDS011;22070;50.922;5.430;2023-04-24T06:58:47;9.15;;;5.63;;
36001;SDS011;22070;50.922;5.430;2023-04-24T07:01:13;14.05;;;6.65;;
36001;SDS011;22070;50.922;5.430;2023-04-24T07:03:39;13.77;;;6.57;;
36001;SDS011;22070;50.922;5.430;2023-04-24T07:06:05;13.43;;;6.70;;
36001;SDS011;22070;50.922;5.430;2023-04-24T07:08:31;13.60;;;6.83;;
36001;SDS011;22070;50.922;5.430;2023-04-24T07:13:24;11.68;;;7.22;;
36001;SDS011;22070;50.922;5.430;2023-04-24T07:15:49;9.02;;;5.13;;
36001;SDS011;22070;50.922;5.430;2023-04-24T07:18:16;11.65;;;7.63;;
36001;SDS011;22070;50.922;5.430;2023-04-24T07:20:42;14.87;;;7.33;;
36001;SDS011;22070;50.922;5.430;2023-04-24T07:23:07;14.77;;;8.60;;
36001;SDS011;22070;50.922;5.430;2023-04-24T07:25:33;18.30;;;8.65;;
36001;SDS011;22070;50.922;5.430;2023-04-24T07:27:59;14.13;;;8.30;;
36001;SDS011;22070;50.922;5.430;2023-04-24T07:30:25;19.00;;;9.63;;
36001;SDS011;22070;50.922;5.430;2023-04-24T07:32:50;19.35;;;9.25;;
36001;SDS011;22070;50.922;5.430;2023-04-24T07:35:16;11.63;;;7.32;;
36001;SDS011;22070;50.922;5.430;2023-04-24T07:37:42;16.73;;;8.53;;
36001;SDS011;22070;50.922;5.430;2023-04-24T07:40:11;17.23;;;8.93;;
36001;SDS011;22070;50.922;5.430;2023-04-24T07:42:37;16.17;;;9.35;;
36001;SDS011;22070;50.922;5.430;2023-04-24T07:45:03;18.35;;;10.00;;
36001;SDS011;22070;50.922;5.430;2023-04-24T07:47:30;22.08;;;10.48;;
36001;SDS011;22070;50.922;5.430;2023-04-24T07:49:56;20.23;;;10.13;;
36001;SDS011;22070;50.922;5.430;2023-04-24T07:52:23;21.40;;;10.13;;
36001;SDS011;22070;50.922;5.430;2023-04-24T07:54:48;17.70;;;9.50;;
36001;SDS011;22070;50.922;5.430;2023-04-24T07:57:15;17.20;;;8.93;;
36001;SDS011;22070;50.922;5.430;2023-04-24T07:59:41;16.47;;;9.17;;
36001;SDS011;22070;50.922;5.430;2023-04-24T08:02:07;14.23;;;8.02;;
36001;SDS011;22070;50.922;5.430;2023-04-24T08:04:33;17.67;;;8.38;;
36001;SDS011;22070;50.922;5.430;2023-04-24T08:06:58;13.82;;;9.32;;
36001;SDS011;22070;50.922;5.430;2023-04-24T08:09:24;20.83;;;10.45;;
36001;SDS011;22070;50.922;5.430;2023-04-24T08:11:50;19.42;;;11.65;;
36001;SDS011;22070;50.922;5.430;2023-04-24T08:14:15;21.50;;;11.25;;
36001;SDS011;22070;50.922;5.430;2023-04-24T08:16:41;18.65;;;11.13;;
36001;SDS011;22070;50.922;5.430;2023-04-24T08:19:07;21.90;;;11.17;;
36001;SDS011;22070;50.922;5.430;2023-04-24T08:21:33;19.15;;;10.68;;
36001;SDS011;22070;50.922;5.430;2023-04-24T08:23:58;15.82;;;9.57;;
36001;SDS011;22070;50.922;5.430;2023-04-24T08:26:24;17.48;;;9.30;;
36001;SDS011;22070;50.922;5.430;2023-04-24T08:28:50;21.88;;;10.73;;
36001;SDS011;22070;50.922;5.430;2023-04-24T08:31:15;22.60;;;10.20;;
36001;SDS011;22070;50.922;5.430;2023-04-24T08:33:41;16.98;;;9.57;;
36001;SDS011;22070;50.922;5.430;2023-04-24T08:36:09;18.83;;;9.38;;
36001;SDS011;22070;50.922;5.430;2023-04-24T08:38:35;20.15;;;9.32;;
36001;SDS011;22070;50.922;5.430;2023-04-24T08:41:01;18.55;;;8.65;;
36001;SDS011;22070;50.922;5.430;2023-04-24T08:43:27;22.85;;;9.55;;
36001;SDS011;22070;50.922;5.430;2023-04-24T08:45:55;13.25;;;8.18;;
36001;SDS011;22070;50.922;5.430;2023-04-24T08:48:22;15.10;;;8.82;;
36001;SDS011;22070;50.922;5.430;2023-04-24T08:50:49;16.25;;;7.60;;
36001;SDS011;22070;50.922;5.430;2023-04-24T08:53:16;19.88;;;8.05;;
36001;SDS011;22070;50.922;5.430;2023-04-24T08:55:43;16.75;;;8.35;;
36001;SDS011;22070;50.922;5.430;2023-04-24T08:58:10;13.30;;;7.10;;
36001;SDS011;22070;50.922;5.430;2023-04-24T09:00:36;17.40;;;7.30;;
36001;SDS011;22070;50.922;5.430;2023-04-24T09:03:05;16.17;;;7.18;;
36001;SDS011;22070;50.922;5.430;2023-04-24T09:05:31;14.52;;;5.93;;
36001;SDS011;22070;50.922;5.430;2023-04-24T09:07:58;14.20;;;5.53;;
36001;SDS011;22070;50.922;5.430;2023-04-24T09:10:26;14.02;;;5.57;;
36001;SDS011;22070;50.922;5.430;2023-04-24T09:12:55;15.57;;;5.30;;
36001;SDS011;22070;50.922;5.430;2023-04-24T09:15:24;20.05;;;5.18;;
36001;SDS011;22070;50.922;5.430;2023-04-24T09:17:50;7.60;;;3.90;;
36001;SDS011;22070;50.922;5.430;2023-04-24T09:20:16;12.82;;;4.35;;
36001;SDS011;22070;50.922;5.430;2023-04-24T09:22:42;12.02;;;4.35;;
36001;SDS011;22070;50.922;5.430;2023-04-24T09:25:10;12.43;;;4.32;;
36001;SDS011;22070;50.922;5.430;2023-04-24T09:27:41;9.23;;;3.42;;
36001;SDS011;22070;50.922;5.430;2023-04-24T09:30:09;12.43;;;3.90;;
36001;SDS011;22070;50.922;5.430;2023-04-24T09:32:35;11.90;;;3.65;;
36001;SDS011;22070;50.922;5.430;2023-04-24T09:35:04;8.60;;;3.40;;
36001;SDS011;22070;50.922;5.430;2023-04-24T09:37:34;8.73;;;3.35;;
36001;SDS011;22070;50.922;5.430;2023-04-24T09:40:07;6.68;;;3.28;;
36001;SDS011;22070;50.922;5.430;2023-04-24T09:42:33;9.85;;;4.53;;
36001;SDS011;22070;50.922;5.430;2023-04-24T09:44:59;11.82;;;4.35;;
36001;SDS011;22070;50.922;5.430;2023-04-24T09:47:24;13.95;;;5.00;;
36001;SDS011;22070;50.922;5.430;2023-04-24T09:49:50;18.00;;;6.22;;
36001;SDS011;22070;50.922;5.430;2023-04-24T09:52:22;15.50;;;5.75;;
36001;SDS011;22070;50.922;5.430;2023-04-24T09:54:53;16.15;;;6.57;;
36001;SDS011;22070;50.922;5.430;2023-04-24T09:57:19;11.82;;;5.55;;
36001;SDS011;22070;50.922;5.430;2023-04-24T09:59:45;16.15;;;5.88;;
36001;SDS011;22070;50.922;5.430;2023-04-24T10:02:18;17.08;;;6.60;;
36001;SDS011;22070;50.922;5.430;2023-04-24T10:04:53;17.17;;;6.70;;
36001;SDS011;22070;50.922;5.430;2023-04-24T10:07:21;13.65;;;6.22;;
36001;SDS011;22070;50.922;5.430;2023-04-24T10:09:47;15.33;;;5.60;;
36001;SDS011;22070;50.922;5.430;2023-04-24T10:12:13;15.98;;;5.45;;
36001;SDS011;22070;50.922;5.430;2023-04-24T10:17:06;13.47;;;6.13;;
36001;SDS011;22070;50.922;5.430;2023-04-24T10:19:32;12.15;;;6.47;;
36001;SDS011;22070;50.922;5.430;2023-04-24T10:22:00;17.13;;;6.50;;
36001;SDS011;22070;50.922;5.430;2023-04-24T10:24:27;14.40;;;5.97;;
36001;SDS011;22070;50.922;5.430;2023-04-24T10:26:54;11.95;;;4.35;;
36001;SDS011;22070;50.922;5.430;2023-04-24T10:29:21;10.15;;;4.72;;
36001;SDS011;22070;50.922;5.430;2023-04-24T10:31:48;12.10;;;4.45;;
36001;SDS011;22070;50.922;5.430;2023-04-24T10:34:14;15.03;;;4.47;;
36001;SDS011;22070;50.922;5.430;2023-04-24T10:36:43;8.80;;;4.05;;
36001;SDS011;22070;50.922;5.430;2023-04-24T10:39:13;11.82;;;4.88;;
36001;SDS011;22070;50.922;5.430;2023-04-24T10:41:41;9.88;;;5.05;;
36001;SDS011;22070;50.922;5.430;2023-04-24T10:44:07;13.35;;;5.57;;
36001;SDS011;22070;50.922;5.430;2023-04-24T10:46:37;12.48;;;5.70;;
36001;SDS011;22070;50.922;5.430;2023-04-24T10:49:05;14.45;;;5.85;;
36001;SDS011;22070;50.922;5.430;2023-04-24T10:51:47;13.63;;;5.28;;
36001;SDS011;22070;50.922;5.430;2023-04-24T10:54:36;13.38;;;5.72;;
36001;SDS011;22070;50.922;5.430;2023-04-24T10:59:51;15.15;;;5.32;;
36001;SDS011;22070;50.922;5.430;2023-04-24T11:02:35;12.85;;;5.10;;
36001;SDS011;22070;50.922;5.430;2023-04-24T11:05:03;9.43;;;4.65;;
36001;SDS011;22070;50.922;5.430;2023-04-24T11:07:29;20.58;;;6.45;;
36001;SDS011;22070;50.922;5.430;2023-04-24T11:09:58;11.85;;;4.97;;
36001;SDS011;22070;50.922;5.430;2023-04-24T11:12:26;13.52;;;5.85;;
36001;SDS011;22070;50.922;5.430;2023-04-24T11:17:37;15.32;;;5.57;;
36001;SDS011;22070;50.922;5.430;2023-04-24T11:20:08;12.98;;;6.50;;
36001;SDS011;22070;50.922;5.430;2023-04-24T11:22:41;17.10;;;6.93;;
36001;SDS011;22070;50.922;5.430;2023-04-24T11:25:08;19.30;;;7.07;;
36001;SDS011;22070;50.922;5.430;2023-04-24T11:27:43;10.25;;;5.20;;
36001;SDS011;22070;50.922;5.430;2023-04-24T11:30:10;19.55;;;6.65;;
36001;SDS011;22070;50.922;5.430;2023-04-24T11:32:37;22.30;;;6.40;;
36001;SDS011;22070;50.922;5.430;2023-04-24T11:35:04;17.58;;;6.65;;
36001;SDS011;22070;50.922;5.430;2023-04-24T11:37:36;14.82;;;5.97;;
36001;SDS011;22070;50.922;5.430;2023-04-24T11:40:02;14.93;;;6.05;;
36001;SDS011;22070;50.922;5.430;2023-04-24T11:42:33;15.48;;;5.70;;
36001;SDS011;22070;50.922;5.430;2023-04-24T11:45:10;15.43;;;4.78;;
36001;SDS011;22070;50.922;5.430;2023-04-24T11:47:40;9.93;;;3.50;;
36001;SDS011;22070;50.922;5.430;2023-04-24T11:50:11;13.02;;;3.92;;
36001;SDS011;22070;50.922;5.430;2023-04-24T11:52:38;8.13;;;3.90;;
36001;SDS011;22070;50.922;5.430;2023-04-24T11:55:06;11.20;;;3.80;;
36001;SDS011;22070;50.922;5.430;2023-04-24T11:57:51;11.82;;;4.15;;
36001;SDS011;22070;50.922;5.430;2023-04-24T12:02:51;9.43;;;4.40;;
36001;SDS011;22070;50.922;5.430;2023-04-24T12:05:27;12.57;;;4.95;;
36001;SDS011;22070;50.922;5.430;2023-04-24T12:07:56;11.32;;;5.60;;
36001;SDS011;22070;50.922;5.430;2023-04-24T12:10:22;14.68;;;6.40;;
36001;SDS011;22070;50.922;5.430;2023-04-24T12:12:50;9.45;;;4.40;;
36001;SDS011;22070;50.922;5.430;2023-04-24T12:15:17;8.23;;;4.07;;
36001;SDS011;22070;50.922;5.430;2023-04-24T12:17:43;8.43;;;4.15;;
36001;SDS011;22070;50.922;5.430;2023-04-24T12:20:10;7.07;;;4.28;;
36001;SDS011;22070;50.922;5.430;2023-04-24T12:25:20;8.45;;;4.53;;
36001;SDS011;22070;50.922;5.430;2023-04-24T12:27:52;7.03;;;2.85;;
36001;SDS011;22070;50.922;5.430;2023-04-24T12:30:47;5.53;;;2.45;;
36001;SDS011;22070;50.922;5.430;2023-04-24T12:33:20;4.10;;;2.00;;
36001;SDS011;22070;50.922;5.430;2023-04-24T12:35:47;8.35;;;2.53;;
36001;SDS011;22070;50.922;5.430;2023-04-24T12:38:16;4.90;;;2.30;;
36001;SDS011;22070;50.922;5.430;2023-04-24T12:40:46;7.55;;;3.25;;
36001;SDS011;22070;50.922;5.430;2023-04-24T12:43:16;5.68;;;2.90;;
36001;SDS011;22070;50.922;5.430;2023-04-24T12:45:45;5.45;;;2.75;;
36001;SDS011;22070;50.922;5.430;2023-04-24T12:48:12;8.95;;;3.00;;
36001;SDS011;22070;50.922;5.430;2023-04-24T12:50:41;8.77;;;3.85;;
36001;SDS011;22070;50.922;5.430;2023-04-24T12:53:08;5.47;;;3.20;;
36001;SDS011;22070;50.922;5.430;2023-04-24T12:55:34;8.07;;;3.90;;
36001;SDS011;22070;50.922;5.430;2023-04-24T12:57:59;7.57;;;3.17;;
36001;SDS011;22070;50.922;5.430;2023-04-24T13:00:26;8.75;;;3.10;;
36001;SDS011;22070;50.922;5.430;2023-04-24T13:02:52;6.53;;;3.30;;
36001;SDS011;22070;50.922;5.430;2023-04-24T13:05:18;11.30;;;3.90;;
36001;SDS011;22070;50.922;5.430;2023-04-24T13:07:43;9.85;;;3.58;;
36001;SDS011;22070;50.922;5.430;2023-04-24T13:10:09;9.25;;;3.00;;
36001;SDS011;22070;50.922;5.430;2023-04-24T13:12:35;5.18;;;2.78;;
36001;SDS011;22070;50.922;5.430;2023-04-24T13:15:01;11.60;;;3.28;;
36001;SDS011;22070;50.922;5.430;2023-04-24T13:17:27;6.50;;;3.00;;
36001;SDS011;22070;50.922;5.430;2023-04-24T13:19:54;6.67;;;3.10;;
36001;SDS011;22070;50.922;5.430;2023-04-24T13:22:20;10.20;;;3.25;;
36001;SDS011;22070;50.922;5.430;2023-04-24T13:24:45;6.15;;;3.10;;
36001;SDS011;22070;50.922;5.430;2023-04-24T13:27:14;8.52;;;3.30;;
36001;SDS011;22070;50.922;5.430;2023-04-24T13:29:40;4.45;;;3.17;;
36001;SDS011;22070;50.922;5.430;2023-04-24T13:32:06;9.10;;;3.47;;
36001;SDS011;22070;50.922;5.430;2023-04-24T13:34:32;8.93;;;3.85;;
36001;SDS011;22070;50.922;5.430;2023-04-24T13:36:59;3.92;;;2.40;;
36001;SDS011;22070;50.922;5.430;2023-04-24T13:39:26;8.13;;;3.13;;
36001;SDS011;22070;50.922;5.430;2023-04-24T13:41:52;7.25;;;3.13;;
36001;SDS011;22070;50.922;5.430;2023-04-24T13:44:18;6.15;;;3.03;;
36001;SDS011;22070;50.922;5.430;2023-04-24T13:46:46;4.70;;;2.92;;
36001;SDS011;22070;50.922;5.430;2023-04-24T13:49:13;6.07;;;2.92;;
36001;SDS011;22070;50.922;5.430;2023-04-24T13:51:39;5.28;;;2.90;;
36001;SDS011;22070;50.922;5.430;2023-04-24T13:54:06;4.72;;;2.90;;
36001;SDS011;22070;50.922;5.430;2023-04-24T13:56:32;5.28;;;2.90;;
36001;SDS011;22070;50.922;5.430;2023-04-24T13:58:58;11.50;;;3.65;;
36001;SDS011;22070;50.922;5.430;2023-04-24T14:01:23;7.97;;;3.43;;
36001;SDS011;22070;50.922;5.430;2023-04-24T14:03:53;6.57;;;3.75;;
36001;SDS011;22070;50.922;5.430;2023-04-24T14:06:20;4.55;;;2.90;;
36001;SDS011;22070;50.922;5.430;2023-04-24T14:08:46;4.73;;;3.03;;
36001;SDS011;22070;50.922;5.430;2023-04-24T14:11:12;13.13;;;3.20;;
36001;SDS011;22070;50.922;5.430;2023-04-24T14:13:39;5.70;;;2.78;;
36001;SDS011;22070;50.922;5.430;2023-04-24T14:16:06;10.60;;;3.28;;
36001;SDS011;22070;50.922;5.430;2023-04-24T14:18:31;5.97;;;2.20;;
36001;SDS011;22070;50.922;5.430;2023-04-24T14:20:57;7.53;;;2.87;;
36001;SDS011;22070;50.922;5.430;2023-04-24T14:23:24;5.68;;;2.95;;
36001;SDS011;22070;50.922;5.430;2023-04-24T14:25:49;5.40;;;2.63;;
36001;SDS011;22070;50.922;5.430;2023-04-24T14:28:16;6.75;;;2.35;;
36001;SDS011;22070;50.922;5.430;2023-04-24T14:30:45;6.13;;;3.00;;
36001;SDS011;22070;50.922;5.430;2023-04-24T14:33:14;4.97;;;3.15;;
36001;SDS011;22070;50.922;5.430;2023-04-24T14:35:40;5.10;;;2.67;;
36001;SDS011;22070;50.922;5.430;2023-04-24T14:38:10;7.30;;;2.88;;
36001;SDS011;22070;50.922;5.430;2023-04-24T14:40:36;7.03;;;2.85;;
36001;SDS011;22070;50.922;5.430;2023-04-24T14:43:02;5.88;;;2.80;;
36001;SDS011;22070;50.922;5.430;2023-04-24T14:45:28;7.57;;;3.03;;
36001;SDS011;22070;50.922;5.430;2023-04-24T14:47:54;6.30;;;3.20;;
36001;SDS011;22070;50.922;5.430;2023-04-24T14:50:20;8.88;;;2.90;;
36001;SDS011;22070;50.922;5.430;2023-04-24T14:52:46;4.83;;;2.87;;
36001;SDS011;22070;50.922;5.430;2023-04-24T14:55:12;4.43;;;2.83;;
36001;SDS011;22070;50.922;5.430;2023-04-24T14:57:38;5.43;;;2.23;;